createdAt,value
2019-03-01T00:01:06.818Z,74.58
2019-03-01T00:03:35.420Z,67.82
2019-03-01T00:06:19.589Z,72.53
2019-03-01T00:09:28.340Z,76.28
2019-03-01T00:12:27.703Z,75.65
2019-03-01T00:15:27.181Z,76.47
2019-03-01T00:18:02.139Z,71.97
2019-03-01T00:20:37.295Z,72.32
2019-03-01T00:23:32.027Z,71.82
2019-03-01T00:26:28.043Z,67.95
2019-03-01T00:29:08.755Z,76.05
2019-03-01T00:32:14.059Z,77.37
2019-03-01T00:35:16.822Z,73.80
2019-03-01T00:38:07.468Z,74.27
2019-03-01T00:41:00.597Z,81.05
2019-03-01T00:43:44.319Z,74.45
2019-03-01T00:46:10.748Z,79.53
2019-03-01T00:48:37.491Z,77.53
2019-03-01T00:51:03.826Z,81.08
2019-03-01T00:53:30.352Z,76.20
2019-03-01T00:55:56.825Z,80.22
2019-03-01T00:58:23.153Z,77.00
2019-03-01T01:00:49.432Z,69.53
2019-03-01T01:03:15.757Z,75.60
2019-03-01T01:05:42.117Z,75.55
2019-03-01T01:08:08.551Z,73.12
2019-03-01T01:10:34.960Z,83.52
2019-03-01T01:13:01.508Z,75.57
2019-03-01T01:15:27.920Z,82.97
2019-03-01T01:17:54.319Z,82.15
2019-03-01T01:20:20.601Z,80.77
2019-03-01T01:22:46.931Z,80.90
2019-03-01T01:25:13.242Z,78.78
2019-03-01T01:27:41.114Z,78.07
2019-03-01T01:37:41.720Z,76.60
2019-03-01T01:40:09.331Z,78.83
2019-03-01T01:42:35.661Z,75.92
2019-03-01T01:45:04.790Z,79.75
2019-03-01T01:47:31.107Z,76.40
2019-03-01T01:49:57.456Z,85.92
2019-03-01T01:52:23.978Z,77.92
2019-03-01T01:54:50.367Z,76.15
2019-03-01T01:57:16.793Z,77.67
2019-03-01T01:59:43.235Z,81.72
2019-03-01T02:02:09.536Z,75.50
2019-03-01T02:04:35.952Z,76.62
2019-03-01T02:07:02.412Z,73.40
2019-03-01T02:09:28.848Z,77.10
2019-03-01T02:11:55.154Z,76.85
2019-03-01T02:14:21.601Z,71.25
2019-03-01T02:16:48.062Z,77.78
2019-03-01T02:19:14.447Z,78.10
2019-03-01T02:21:40.786Z,76.07
2019-03-01T02:24:07.170Z,75.62
2019-03-01T02:26:33.734Z,75.03
2019-03-01T02:29:00.093Z,86.25
2019-03-01T02:31:26.528Z,88.52
2019-03-01T02:33:52.972Z,86.40
2019-03-01T02:36:19.382Z,80.10
2019-03-01T02:38:46.137Z,81.10
2019-03-01T02:41:12.430Z,87.95
2019-03-01T02:43:39.111Z,94.10
2019-03-01T02:46:05.497Z,85.50
2019-03-01T02:48:32.135Z,75.67
2019-03-01T02:50:58.805Z,83.05
2019-03-01T02:53:25.128Z,86.28
2019-03-01T02:55:51.660Z,84.32
2019-03-01T02:58:18.059Z,91.35
2019-03-01T03:00:44.550Z,83.30
2019-03-01T03:03:11.043Z,92.08
2019-03-01T03:05:39.672Z,86.95
2019-03-01T03:08:08.401Z,87.78
2019-03-01T03:10:35.170Z,85.92
2019-03-01T03:13:04.660Z,92.53
2019-03-01T03:15:39.017Z,90.85
2019-03-01T03:18:05.447Z,88.45
2019-03-01T03:20:32.007Z,85.15
2019-03-01T03:22:58.515Z,82.02
2019-03-01T03:25:24.816Z,83.80
2019-03-01T03:27:51.522Z,84.75
2019-03-01T03:30:18.623Z,85.97
2019-03-01T03:32:45.140Z,89.00
2019-03-01T03:35:11.652Z,92.75
2019-03-01T03:37:37.972Z,79.00
2019-03-01T03:40:11.067Z,93.05
2019-03-01T03:42:37.360Z,92.85
2019-03-01T03:45:11.889Z,100.07
2019-03-01T03:47:38.455Z,91.57
2019-03-01T03:50:11.323Z,93.62
2019-03-01T03:52:37.607Z,94.10
2019-03-01T03:55:07.332Z,91.50
2019-03-01T03:57:33.656Z,86.67
2019-03-01T04:00:00.323Z,89.20
2019-03-01T04:02:26.969Z,89.05
2019-03-01T04:04:53.257Z,96.42
2019-03-01T04:07:19.620Z,95.57
2019-03-01T04:09:45.999Z,95.65
2019-03-01T04:12:12.515Z,100.20
2019-03-01T04:14:38.971Z,89.10
2019-03-01T04:17:05.441Z,96.75
2019-03-01T04:19:32.051Z,93.33
2019-03-01T04:21:58.591Z,88.58
2019-03-01T04:24:25.011Z,87.62
2019-03-01T04:26:51.333Z,84.62
2019-03-01T04:29:17.784Z,88.92
2019-03-01T04:31:44.348Z,86.32
2019-03-01T04:34:10.727Z,85.77
2019-03-01T04:36:37.129Z,88.95
2019-03-01T04:39:05.993Z,96.32
2019-03-01T04:41:32.512Z,90.72
2019-03-01T04:43:58.932Z,87.70
2019-03-01T04:46:25.326Z,89.92
2019-03-01T04:48:51.810Z,89.40
2019-03-01T04:51:18.380Z,91.70
2019-03-01T04:53:44.711Z,91.10
2019-03-01T04:56:10.988Z,80.55
2019-03-01T04:58:37.640Z,88.07
2019-03-01T05:01:04.075Z,95.65
2019-03-01T05:03:30.476Z,94.85
2019-03-01T05:05:56.940Z,92.65
2019-03-01T05:08:23.320Z,86.90
2019-03-01T05:10:49.912Z,105.00
2019-03-01T05:13:16.369Z,94.58
2019-03-01T05:15:42.744Z,83.25
2019-03-01T05:18:09.187Z,83.55
2019-03-01T05:20:35.697Z,84.97
2019-03-01T05:23:01.996Z,85.42
2019-03-01T05:25:28.407Z,88.82
2019-03-01T05:27:54.798Z,86.95
2019-03-01T05:30:21.225Z,93.20
2019-03-01T05:32:47.680Z,96.37
2019-03-01T05:35:14.135Z,93.50
2019-03-01T05:37:40.550Z,84.55
2019-03-01T05:40:15.500Z,97.80
2019-03-01T05:42:41.895Z,89.92
2019-03-01T05:45:18.324Z,93.90
2019-03-01T05:47:44.715Z,96.00
2019-03-01T05:50:13.438Z,93.75
2019-03-01T05:52:39.874Z,91.40
2019-03-01T05:55:08.170Z,94.25
2019-03-01T05:57:34.574Z,98.20
2019-03-01T06:00:01.034Z,95.55
2019-03-01T06:02:41.950Z,96.37
2019-03-01T06:05:11.785Z,94.50
2019-03-01T06:07:52.900Z,95.47
2019-03-01T06:10:37.239Z,93.65
2019-03-01T06:13:24.770Z,85.62
2019-03-01T06:16:36.841Z,87.75
2019-03-01T06:19:11.687Z,86.80
2019-03-01T06:22:02.132Z,87.25
2019-03-01T06:24:56.703Z,90.22
2019-03-01T06:27:47.044Z,85.53
2019-03-01T06:30:24.913Z,88.15
2019-03-01T06:33:31.926Z,86.80
2019-03-01T06:36:48.523Z,87.72
2019-03-01T06:39:31.528Z,93.05
2019-03-01T06:42:37.629Z,88.27
2019-03-01T06:45:22.639Z,90.30
2019-03-01T06:47:49.077Z,97.97
2019-03-01T06:50:20.489Z,92.92
2019-03-01T06:52:46.921Z,97.45
2019-03-01T06:55:33.523Z,97.12
2019-03-01T06:57:59.847Z,100.65
2019-03-01T07:00:26.719Z,96.78
2019-03-01T07:03:00.245Z,100.78
2019-03-01T07:05:26.632Z,97.05
2019-03-01T07:07:53.260Z,92.50
2019-03-01T07:10:19.850Z,100.12
2019-03-01T07:12:46.162Z,100.58
2019-03-01T07:15:12.503Z,102.42
2019-03-01T07:17:38.929Z,103.83
2019-03-01T07:20:08.646Z,100.80
2019-03-01T07:22:35.211Z,111.88
2019-03-01T07:25:02.389Z,112.55
2019-03-01T07:27:29.003Z,102.22
2019-03-01T07:29:55.441Z,104.58
2019-03-01T07:32:21.900Z,102.27
2019-03-01T07:34:48.258Z,105.65
2019-03-01T07:37:14.891Z,105.72
2019-03-01T07:39:41.410Z,103.32
2019-03-01T07:42:07.819Z,106.30
2019-03-01T07:44:34.382Z,106.65
2019-03-01T07:47:00.870Z,102.55
2019-03-01T07:49:27.400Z,117.60
2019-03-01T07:51:53.725Z,114.40
2019-03-01T07:54:22.237Z,107.20
2019-03-01T07:56:48.419Z,113.15
2019-03-01T07:59:14.835Z,115.65
2019-03-01T08:01:41.236Z,117.72
2019-03-01T08:04:07.651Z,118.40
2019-03-01T08:06:33.984Z,115.88
2019-03-01T08:09:00.457Z,111.88
2019-03-01T08:11:31.367Z,118.45
2019-03-01T08:13:56.711Z,109.85
2019-03-01T08:16:25.113Z,111.72
2019-03-01T08:18:51.413Z,116.45
2019-03-01T08:21:17.924Z,124.18
2019-03-01T08:23:44.480Z,120.00
2019-03-01T08:26:10.781Z,119.77
2019-03-01T08:28:37.125Z,119.53
2019-03-01T08:31:04.815Z,120.72
2019-03-01T08:33:31.217Z,119.50
2019-03-01T08:35:57.709Z,127.15
2019-03-01T08:38:25.461Z,122.92
2019-03-01T08:40:54.466Z,127.80
2019-03-01T08:43:20.835Z,117.03
2019-03-01T08:45:47.247Z,118.33
2019-03-01T08:48:13.532Z,115.75
2019-03-01T08:50:39.937Z,126.95
2019-03-01T08:53:06.554Z,127.22
2019-03-01T08:55:35.601Z,127.55
2019-03-01T08:58:03.468Z,120.67
2019-03-01T09:00:40.007Z,133.32
2019-03-01T09:03:11.946Z,132.70
2019-03-01T09:05:38.229Z,123.80
2019-03-01T09:08:04.540Z,127.22
2019-03-01T09:10:32.754Z,139.72
2019-03-01T09:12:59.383Z,133.60
2019-03-01T09:15:25.783Z,122.28
2019-03-01T09:17:52.530Z,123.38
2019-03-01T09:20:19.112Z,126.45
2019-03-01T09:22:45.543Z,131.63
2019-03-01T09:25:13.450Z,125.62
2019-03-01T09:27:39.879Z,128.85
2019-03-01T09:30:17.759Z,134.25
2019-03-01T09:32:44.147Z,131.52
2019-03-01T09:35:15.967Z,134.30
2019-03-01T09:37:42.500Z,139.12
2019-03-01T09:40:08.925Z,134.18
2019-03-01T09:42:35.384Z,129.20
2019-03-01T09:45:01.735Z,146.30
2019-03-01T09:47:28.122Z,132.67
2019-03-01T09:49:56.598Z,129.35
2019-03-01T09:52:23.624Z,139.05
2019-03-01T09:54:50.978Z,136.88
2019-03-01T09:57:17.273Z,134.60
2019-03-01T09:59:43.634Z,133.90
2019-03-01T10:02:10.022Z,138.03
2019-03-01T10:04:36.700Z,146.43
2019-03-01T10:07:02.986Z,155.55
2019-03-01T10:09:29.394Z,159.18
2019-03-01T10:11:55.803Z,164.13
2019-03-01T10:14:22.096Z,149.60
2019-03-01T10:16:51.730Z,137.20
2019-03-01T10:19:18.483Z,151.10
2019-03-01T10:21:44.786Z,150.68
2019-03-01T10:24:11.454Z,150.62
2019-03-01T10:26:37.740Z,156.20
2019-03-01T10:29:04.267Z,148.80
2019-03-01T10:31:30.665Z,172.43
2019-03-01T10:33:56.976Z,166.03
2019-03-01T10:36:23.262Z,168.45
2019-03-01T10:38:49.818Z,173.28
2019-03-01T10:41:16.132Z,169.32
2019-03-01T10:43:42.443Z,165.62
2019-03-01T10:46:09.102Z,153.47
2019-03-01T10:48:35.486Z,159.05
2019-03-01T10:51:02.044Z,151.90
2019-03-01T10:53:28.418Z,145.28
2019-03-01T10:55:54.767Z,159.03
2019-03-01T10:58:21.337Z,155.30
2019-03-01T11:00:47.764Z,158.85
2019-03-01T11:03:14.260Z,165.88
2019-03-01T11:05:40.562Z,164.85
2019-03-01T11:08:06.931Z,172.17
2019-03-01T11:10:39.241Z,160.25
2019-03-01T11:13:16.347Z,158.82
2019-03-01T11:15:42.636Z,153.40
2019-03-01T11:18:08.999Z,155.22
2019-03-01T11:20:35.461Z,160.00
2019-03-01T11:23:01.888Z,159.50
2019-03-01T11:25:28.268Z,156.02
2019-03-01T11:27:54.599Z,159.95
2019-03-01T11:30:34.974Z,154.75
2019-03-01T11:33:01.423Z,159.87
2019-03-01T11:35:27.840Z,159.15
2019-03-01T11:37:54.208Z,165.32
2019-03-01T11:40:32.723Z,160.67
2019-03-01T11:42:59.194Z,171.65
2019-03-01T11:45:25.715Z,159.85
2019-03-01T11:47:52.006Z,154.25
2019-03-01T11:50:23.946Z,161.40
2019-03-01T11:52:50.247Z,170.82
2019-03-01T11:55:16.669Z,166.97
2019-03-01T11:57:42.972Z,159.55
2019-03-01T12:00:18.471Z,174.27
2019-03-01T12:02:45.351Z,201.30
2019-03-01T12:05:13.035Z,216.68
2019-03-01T12:07:39.336Z,168.80
2019-03-01T12:10:13.211Z,175.87
2019-03-01T12:12:39.715Z,164.03
2019-03-01T12:15:08.947Z,173.80
2019-03-01T12:17:35.231Z,162.68
2019-03-01T12:20:01.620Z,168.25
2019-03-01T12:22:28.072Z,168.65
2019-03-01T12:24:54.475Z,163.22
2019-03-01T12:27:21.004Z,166.45
2019-03-01T12:29:47.439Z,156.50
2019-03-01T12:32:13.863Z,154.68
2019-03-01T12:34:40.305Z,149.93
2019-03-01T12:37:06.830Z,156.20
2019-03-01T12:39:33.250Z,164.47
2019-03-01T12:41:59.550Z,151.75
2019-03-01T12:44:26.106Z,165.60
2019-03-01T12:46:52.505Z,158.40
2019-03-01T12:49:18.942Z,168.70
2019-03-01T12:51:45.371Z,170.45
2019-03-01T12:54:11.781Z,156.57
2019-03-01T12:56:38.318Z,160.32
2019-03-01T12:59:04.750Z,145.65
2019-03-01T13:01:31.145Z,159.00
2019-03-01T13:03:57.736Z,166.03
2019-03-01T13:06:24.267Z,173.60
2019-03-01T13:08:51.542Z,166.22
2019-03-01T13:11:18.962Z,177.55
2019-03-01T13:13:45.627Z,166.10
2019-03-01T13:16:12.140Z,160.28
2019-03-01T13:18:38.530Z,159.18
2019-03-01T13:21:05.000Z,164.20
2019-03-01T13:23:31.386Z,162.03
2019-03-01T13:25:57.711Z,155.45
2019-03-01T13:28:24.183Z,145.38
2019-03-01T13:30:50.621Z,154.42
2019-03-01T13:33:17.003Z,158.03
2019-03-01T13:35:43.463Z,163.43
2019-03-01T13:38:09.751Z,167.40
2019-03-01T13:40:36.331Z,160.75
2019-03-01T13:43:02.715Z,179.65
2019-03-01T13:45:29.052Z,173.00
2019-03-01T13:47:55.461Z,168.35
2019-03-01T13:50:21.918Z,158.27
2019-03-01T13:52:49.740Z,165.28
2019-03-01T13:55:18.588Z,156.30
2019-03-01T13:57:45.926Z,159.15
2019-03-01T14:00:17.246Z,162.20
2019-03-01T14:02:46.946Z,174.42
2019-03-01T14:05:17.054Z,189.40
2019-03-01T14:07:42.467Z,215.00
2019-03-01T14:10:12.603Z,224.98
2019-03-01T14:12:38.903Z,248.78
2019-03-01T14:15:13.283Z,244.30
2019-03-01T14:17:39.778Z,221.70
2019-03-01T14:20:19.075Z,230.57
2019-03-01T14:25:43.607Z,303.60
2019-03-01T14:28:09.902Z,272.33
2019-03-01T14:30:36.495Z,240.18
2019-03-01T14:33:03.096Z,226.50
2019-03-01T14:35:29.464Z,222.20
2019-03-01T14:37:55.928Z,224.80
2019-03-01T14:40:23.660Z,235.38
2019-03-01T14:42:50.488Z,242.13
2019-03-01T14:45:31.487Z,290.23
2019-03-01T14:47:57.787Z,217.62
2019-03-01T14:50:25.927Z,265.80
2019-03-01T14:52:56.922Z,249.37
2019-03-01T14:55:44.184Z,215.65
2019-03-01T14:58:28.188Z,222.00
2019-03-01T15:01:26.876Z,217.90
2019-03-01T15:03:53.577Z,286.30
2019-03-01T15:06:20.734Z,281.95
2019-03-01T15:08:47.147Z,226.15
2019-03-01T15:11:13.932Z,239.15
2019-03-01T15:13:41.414Z,291.30
2019-03-01T15:16:08.105Z,249.37
2019-03-01T15:18:36.422Z,266.12
2019-03-01T15:21:04.664Z,342.60
2019-03-01T15:23:30.987Z,402.32
2019-03-01T15:25:57.768Z,464.78
2019-03-01T15:28:24.291Z,579.23
2019-03-01T15:30:51.039Z,777.23
2019-03-01T15:33:17.431Z,602.25
2019-03-01T15:35:43.794Z,537.98
2019-03-01T15:38:10.880Z,646.75
2019-03-01T15:40:37.561Z,437.65
2019-03-01T15:43:04.259Z,287.42
2019-03-01T15:45:30.958Z,335.65
2019-03-01T15:47:58.843Z,317.35
2019-03-01T15:50:27.208Z,225.35
2019-03-01T15:52:54.239Z,226.30
2019-03-01T15:55:20.752Z,266.55
2019-03-01T15:57:47.133Z,281.05
2019-03-01T16:00:16.474Z,248.82
2019-03-01T16:02:42.979Z,226.45
2019-03-01T16:05:11.946Z,220.02
2019-03-01T16:07:38.279Z,223.57
2019-03-01T16:10:10.243Z,221.03
2019-03-01T16:12:36.590Z,264.17
2019-03-01T16:15:08.680Z,250.47
2019-03-01T16:17:34.987Z,225.55
2019-03-01T16:20:01.328Z,223.68
2019-03-01T16:22:27.838Z,404.38
2019-03-01T16:24:54.235Z,300.65
2019-03-01T16:27:20.635Z,432.15
2019-03-01T16:29:46.952Z,418.67
2019-03-01T16:32:13.499Z,404.27
2019-03-01T16:34:41.400Z,375.07
2019-03-01T16:37:08.580Z,330.55
2019-03-01T16:39:35.065Z,381.08
2019-03-01T16:42:01.550Z,335.60
2019-03-01T16:44:28.083Z,660.55
2019-03-01T16:46:54.464Z,537.38
2019-03-01T16:49:23.590Z,225.40
2019-03-01T16:51:50.596Z,170.80
2019-03-01T16:54:17.581Z,160.63
2019-03-01T16:56:43.888Z,254.50
2019-03-01T16:59:10.853Z,263.15
2019-03-01T17:01:37.135Z,304.77
2019-03-01T17:04:03.658Z,224.82
2019-03-01T17:06:30.563Z,184.80
2019-03-01T17:08:56.884Z,351.30
2019-03-01T17:11:23.500Z,286.90
2019-03-01T17:13:49.823Z,155.35
2019-03-01T17:16:16.180Z,142.40
2019-03-01T17:18:44.560Z,150.12
2019-03-01T17:21:12.404Z,206.50
2019-03-01T17:23:39.214Z,208.72
2019-03-01T17:26:06.967Z,157.78
2019-03-01T17:28:33.387Z,134.57
2019-03-01T17:30:59.703Z,90.00
2019-03-01T17:33:26.212Z,124.45
2019-03-01T17:35:52.902Z,149.32
2019-03-01T17:38:19.197Z,154.82
2019-03-01T17:40:45.526Z,165.47
2019-03-01T17:43:11.963Z,145.47
2019-03-01T17:45:38.365Z,152.07
2019-03-01T17:48:04.693Z,134.40
2019-03-01T17:50:31.020Z,141.00
2019-03-01T17:52:57.569Z,160.28
2019-03-01T17:55:26.361Z,153.38
2019-03-01T17:57:52.687Z,147.93
2019-03-01T18:00:32.458Z,135.90
2019-03-01T18:03:00.411Z,146.30
2019-03-01T18:05:27.077Z,157.80
2019-03-01T18:07:53.501Z,150.68
2019-03-01T18:10:19.991Z,156.80
2019-03-01T18:12:46.386Z,157.40
2019-03-01T18:15:15.708Z,168.25
2019-03-01T18:17:42.951Z,157.55
2019-03-01T18:20:11.295Z,158.78
2019-03-01T18:22:37.787Z,148.87
2019-03-01T18:25:12.968Z,131.43
2019-03-01T18:27:40.148Z,131.47
2019-03-01T18:30:19.858Z,149.97
2019-03-01T18:32:46.748Z,170.10
2019-03-01T18:35:13.158Z,167.07
2019-03-01T18:37:39.549Z,195.05
2019-03-01T18:40:13.447Z,192.55
2019-03-01T18:42:39.849Z,147.43
2019-03-01T18:45:21.786Z,115.67
2019-03-01T18:47:48.137Z,128.78
2019-03-01T18:50:34.304Z,131.30
2019-03-01T18:53:03.905Z,146.70
2019-03-01T18:55:30.346Z,146.80
2019-03-01T18:57:56.875Z,146.20
2019-03-01T19:00:32.411Z,149.27
2019-03-01T19:03:04.469Z,141.37
2019-03-01T19:05:31.868Z,135.80
2019-03-01T19:08:00.812Z,130.57
2019-03-01T19:10:27.616Z,129.53
2019-03-01T19:12:55.091Z,127.42
2019-03-01T19:15:21.585Z,129.75
2019-03-01T19:17:48.268Z,127.60
2019-03-01T19:20:27.397Z,140.18
2019-03-01T19:22:53.941Z,151.65
2019-03-01T19:25:21.636Z,148.78
2019-03-01T19:27:50.805Z,147.30
2019-03-01T19:30:23.574Z,152.85
2019-03-01T19:32:50.393Z,142.22
2019-03-01T19:35:16.824Z,142.77
2019-03-01T19:37:45.788Z,146.90
2019-03-01T19:40:18.742Z,143.32
2019-03-01T19:42:45.675Z,149.00
2019-03-01T19:45:16.835Z,157.75
2019-03-01T19:47:43.513Z,158.47
2019-03-01T19:50:21.704Z,170.80
2019-03-01T19:52:50.399Z,173.97
2019-03-01T19:55:17.093Z,168.30
2019-03-01T19:57:43.617Z,159.20
2019-03-01T20:00:22.919Z,164.40
2019-03-01T20:02:49.524Z,241.20
2019-03-01T20:05:31.721Z,195.40
2019-03-01T20:07:56.700Z,203.55
2019-03-01T20:10:23.596Z,251.15
2019-03-01T20:12:50.220Z,144.15
2019-03-01T20:15:20.615Z,147.93
2019-03-01T20:17:47.566Z,169.37
2019-03-01T20:20:17.076Z,145.75
2019-03-01T20:22:43.468Z,169.40
2019-03-01T20:25:16.153Z,124.70
2019-03-01T20:27:41.668Z,139.95
2019-03-01T20:30:13.264Z,115.20
2019-03-01T20:32:40.155Z,183.75
2019-03-01T20:35:09.681Z,224.18
2019-03-01T20:37:39.878Z,184.28
2019-03-01T20:40:11.373Z,196.32
2019-03-01T20:42:38.095Z,183.52
2019-03-01T20:45:12.719Z,171.05
2019-03-01T20:47:39.359Z,168.30
2019-03-01T20:50:08.247Z,150.25
2019-03-01T20:52:34.778Z,131.52
2019-03-01T20:55:01.761Z,124.35
2019-03-01T20:57:28.373Z,121.33
2019-03-01T20:59:54.746Z,128.42
2019-03-01T21:02:21.130Z,152.70
2019-03-01T21:04:53.357Z,160.88
2019-03-01T21:07:16.572Z,180.50
2019-03-01T21:09:43.144Z,120.40
2019-03-01T21:12:09.520Z,139.20
2019-03-01T21:14:35.849Z,162.62
2019-03-01T21:17:02.484Z,129.35
2019-03-01T21:19:28.980Z,118.33
2019-03-01T21:21:55.441Z,127.42
2019-03-01T21:24:26.540Z,141.92
2019-03-01T21:26:52.340Z,122.15
2019-03-01T21:29:18.673Z,107.03
2019-03-01T21:31:44.992Z,108.67
2019-03-01T21:34:11.514Z,85.67
2019-03-01T21:36:37.719Z,91.17
2019-03-01T21:39:05.879Z,134.25
2019-03-01T21:41:32.287Z,88.97
2019-03-01T21:43:58.487Z,197.57
2019-03-01T21:46:25.135Z,122.35
2019-03-01T21:48:51.452Z,117.67
2019-03-01T21:51:18.499Z,109.07
2019-03-01T21:53:45.331Z,136.45
2019-03-01T21:56:11.839Z,107.43
2019-03-01T21:58:38.657Z,137.32
2019-03-01T22:01:07.023Z,94.50
2019-03-01T22:03:34.023Z,150.00
2019-03-01T22:06:00.460Z,127.60
2019-03-01T22:08:27.103Z,146.50
2019-03-01T22:10:53.587Z,95.50
2019-03-01T22:13:19.968Z,102.78
2019-03-01T22:15:46.335Z,107.55
2019-03-01T22:18:12.674Z,124.45
2019-03-01T22:20:41.549Z,124.58
2019-03-01T22:23:09.826Z,98.52
2019-03-01T22:25:37.892Z,93.75
2019-03-01T22:30:51.088Z,93.65
2019-03-01T22:33:20.728Z,111.10
2019-03-01T22:35:45.649Z,100.75
2019-03-01T22:38:11.941Z,110.63
2019-03-01T22:40:38.391Z,107.05
2019-03-01T22:43:04.811Z,114.47
2019-03-01T22:45:31.246Z,125.22
2019-03-01T22:47:57.815Z,110.22
2019-03-01T22:50:24.102Z,102.35
2019-03-01T22:52:50.536Z,95.10
2019-03-01T22:55:18.326Z,86.28
2019-03-01T22:57:45.155Z,92.85
2019-03-01T23:00:47.793Z,82.53
2019-03-01T23:03:18.847Z,90.17
2019-03-01T23:05:44.033Z,83.90
2019-03-01T23:08:10.413Z,81.20
2019-03-01T23:10:37.150Z,73.62
2019-03-01T23:13:03.935Z,77.27
2019-03-01T23:15:30.478Z,81.45
2019-03-01T23:17:56.945Z,81.08
2019-03-01T23:20:26.391Z,74.17
2019-03-01T23:22:51.943Z,81.10
2019-03-01T23:25:18.367Z,73.17
2019-03-01T23:27:44.760Z,68.90
2019-03-01T23:30:11.401Z,82.10
2019-03-01T23:32:37.794Z,74.80
2019-03-01T23:35:04.823Z,79.95
2019-03-01T23:37:31.298Z,73.95
2019-03-01T23:40:01.091Z,78.05
2019-03-01T23:42:26.023Z,76.02
2019-03-01T23:44:52.429Z,73.02
2019-03-01T23:47:19.061Z,69.45
2019-03-01T23:49:45.506Z,89.77
2019-03-01T23:52:12.114Z,93.22
2019-03-01T23:54:40.681Z,83.40
2019-03-01T23:57:06.970Z,89.40
2019-03-01T23:59:33.548Z,91.40
